コモドロリバダビア の空港の天気 - METARとTAF

Comodoro Rivadavia Aerodrome ( SAVC / CRD ) - アルゼンチン チュブ州コモドロリバダビア
飛行場実況気象(Metar)
観測時間07/17 06:00 ART (07/17 09:00 UTC)
風向・風速西 1m/s
視程10km以上
天気現象
全天の8割程度の雲 雲底高度 910m
全天の8割程度の雲 雲底高度 1830m
気温3℃
湿度75%
気圧1026hPa
METARSAVC 170900Z 27002KT 9999 BKN030 BKN060 03/M01 Q1026
過去の天気等 Google飛行場航空写真 Wunderground天気予報

過去48時間のMETAR

飛行場予報(TAF)
発表時間: 7/17 02:00 ART (7/17 05:00 UTC)
予報対象時間: 17日3時 ART ~ 18日3時 ART
風向・風速西南西 2m/s
視程10km以上
少しの雲 雲底高度 910m
全天の4割程度の雲 雲底高度 3050m
17日6時 ART ~ 17日9時 ART に徐々に
風向・風速南西 8m/s
視程9000m
天気現象弱い雨
全天の8割程度の雲 雲底高度 610m
全天を覆う雲 雲底高度 1220m
17日21時 ART ~ 17日23時 ART に徐々に
視程6000m
天気現象
全天の8割程度の雲 雲底高度 460m
全天を覆う雲 雲底高度 1370m
TAF SAVC 170500Z 1706/1806 25003KT 9999 FEW030 SCT100 TX04/1718Z TNM01/1712Z
BECMG 1709/1712 22015KT 9000 -RA BKN020 OVC040
BECMG 1800/1802 6000 RA BKN015 OVC045